Terminal Aerodrome Forecast
Issued by NWS Atlanta, GA

Home | Current Version | Previous Version | Text Only | Print | Product List | Glossary On
Versions: 1 2 3 4 5 6 7 8 9 10 11 12 13 14 15 16 17 18 19
000
FTUS42 KFFC 210500
TAFCSG
TAF
KCSG 210532Z 2106/2206 32003KT P6SM SCT150 BKN250
     FM210800 32003KT 4SM BR SCT007
     FM211400 31004KT P6SM SCT025
     FM211700 30006KT P6SM SCT045
     FM220200 30002KT P6SM SKC=

USA.gov is the U.S. government's official web portal to all federal, state and local government web resources and services.